Terminal Aerodrome Forecast
Issued by NWS Sterling, VA

Current Version | Previous Version | Text Only | Print | Product List | Glossary Off
Versions: 1 2 3 4 5 6 7 8 9 10 11 12 13 14 15 16 17 18

000
FTUS41 KLWX 032330
TAFMRB
TAF
KMRB 032330Z 0400/0424 VRB03KT P6SM FEW100
     FM041700 21007KT P6SM SCT060
     FM042000 20011KT P6SM SCT060=

USA.gov is the U.S. government's official web portal to all federal, state and local government web resources and services.